sensor_id;sensor_type;location;lat;lon;timestamp;pressure;altitude;pressure_sealevel;temperature;humidity
7834;BME280;3962;42.696;23.354;2022-11-03T00:00:04;95744.53;;;16.68;50.12
7834;BME280;3962;42.696;23.354;2022-11-03T00:02:31;95745.72;;;16.65;50.05
7834;BME280;3962;42.696;23.354;2022-11-03T00:04:59;95742.53;;;16.62;50.15
7834;BME280;3962;42.696;23.354;2022-11-03T00:07:46;95744.03;;;16.64;50.36
7834;BME280;3962;42.696;23.354;2022-11-03T00:10:13;95751.09;;;16.65;50.11
7834;BME280;3962;42.696;23.354;2022-11-03T00:12:41;95744.38;;;16.61;50.13
7834;BME280;3962;42.696;23.354;2022-11-03T00:15:08;95746.03;;;16.62;50.33
7834;BME280;3962;42.696;23.354;2022-11-03T00:17:41;95751.78;;;16.59;50.33
7834;BME280;3962;42.696;23.354;2022-11-03T00:20:11;95761.84;;;16.57;50.56
7834;BME280;3962;42.696;23.354;2022-11-03T00:22:41;95753.78;;;16.57;50.98
7834;BME280;3962;42.696;23.354;2022-11-03T00:25:10;95755.63;;;16.57;51.17
7834;BME280;3962;42.696;23.354;2022-11-03T00:27:36;95744.88;;;16.57;51.52
7834;BME280;3962;42.696;23.354;2022-11-03T00:30:07;95741.38;;;16.56;51.39
7834;BME280;3962;42.696;23.354;2022-11-03T00:32:36;95754.81;;;16.56;51.56
7834;BME280;3962;42.696;23.354;2022-11-03T00:35:03;95749.59;;;16.55;51.55
7834;BME280;3962;42.696;23.354;2022-11-03T00:37:31;95747.94;;;16.54;51.61
7834;BME280;3962;42.696;23.354;2022-11-03T00:39:58;95745.56;;;16.51;51.47
7834;BME280;3962;42.696;23.354;2022-11-03T00:42:28;95744.56;;;16.44;51.42
7834;BME280;3962;42.696;23.354;2022-11-03T00:44:57;95752.16;;;16.40;51.90
7834;BME280;3962;42.696;23.354;2022-11-03T00:47:23;95742.72;;;16.36;51.72
7834;BME280;3962;42.696;23.354;2022-11-03T00:50:10;95761.19;;;16.39;52.24
7834;BME280;3962;42.696;23.354;2022-11-03T00:52:38;95755.31;;;16.36;52.07
7834;BME280;3962;42.696;23.354;2022-11-03T00:55:11;95753.47;;;16.36;52.13
7834;BME280;3962;42.696;23.354;2022-11-03T00:57:38;95752.81;;;16.26;52.35
7834;BME280;3962;42.696;23.354;2022-11-03T01:00:06;95754.50;;;16.27;52.37
7834;BME280;3962;42.696;23.354;2022-11-03T01:02:33;95758.19;;;16.26;52.54
7834;BME280;3962;42.696;23.354;2022-11-03T01:05:00;95760.88;;;16.26;52.98
7834;BME280;3962;42.696;23.354;2022-11-03T01:07:46;95751.47;;;16.22;53.50
7834;BME280;3962;42.696;23.354;2022-11-03T01:10:20;95755.31;;;16.20;53.86
7834;BME280;3962;42.696;23.354;2022-11-03T01:12:48;95751.84;;;16.11;54.71
7834;BME280;3962;42.696;23.354;2022-11-03T01:15:20;95753.66;;;16.11;54.96
7834;BME280;3962;42.696;23.354;2022-11-03T01:17:47;95758.38;;;16.09;55.31
7834;BME280;3962;42.696;23.354;2022-11-03T01:20:19;95765.41;;;16.10;56.02
7834;BME280;3962;42.696;23.354;2022-11-03T01:22:50;95757.53;;;16.08;56.44
7834;BME280;3962;42.696;23.354;2022-11-03T01:25:19;95755.03;;;16.07;56.90
7834;BME280;3962;42.696;23.354;2022-11-03T01:27:45;95753.00;;;16.09;57.19
7834;BME280;3962;42.696;23.354;2022-11-03T01:30:12;95759.03;;;16.11;57.88
7834;BME280;3962;42.696;23.354;2022-11-03T01:32:41;95759.53;;;16.06;58.24
7834;BME280;3962;42.696;23.354;2022-11-03T01:35:09;95758.03;;;16.04;58.66
7834;BME280;3962;42.696;23.354;2022-11-03T01:37:43;95759.38;;;16.00;59.21
7834;BME280;3962;42.696;23.354;2022-11-03T01:40:35;95762.91;;;16.00;59.25
7834;BME280;3962;42.696;23.354;2022-11-03T01:43:14;95757.38;;;16.02;59.21
7834;BME280;3962;42.696;23.354;2022-11-03T01:45:43;95767.75;;;15.97;59.81
7834;BME280;3962;42.696;23.354;2022-11-03T01:48:10;95759.22;;;15.93;60.40
7834;BME280;3962;42.696;23.354;2022-11-03T01:50:46;95760.41;;;15.91;60.21
7834;BME280;3962;42.696;23.354;2022-11-03T01:53:21;95760.06;;;15.86;60.46
7834;BME280;3962;42.696;23.354;2022-11-03T01:55:58;95767.75;;;15.89;60.26
7834;BME280;3962;42.696;23.354;2022-11-03T01:58:32;95773.13;;;15.81;60.47
7834;BME280;3962;42.696;23.354;2022-11-03T02:01:04;95772.97;;;15.74;60.73
7834;BME280;3962;42.696;23.354;2022-11-03T02:03:50;95770.44;;;15.73;60.98
7834;BME280;3962;42.696;23.354;2022-11-03T02:06:19;95771.78;;;15.77;60.80
7834;BME280;3962;42.696;23.354;2022-11-03T02:08:50;95772.44;;;15.71;61.07
7834;BME280;3962;42.696;23.354;2022-11-03T02:11:25;95771.94;;;15.67;61.22
7834;BME280;3962;42.696;23.354;2022-11-03T02:14:14;95761.72;;;15.55;61.53
7834;BME280;3962;42.696;23.354;2022-11-03T02:16:54;95766.56;;;15.51;61.71
7834;BME280;3962;42.696;23.354;2022-11-03T02:19:29;95778.78;;;15.46;61.94
7834;BME280;3962;42.696;23.354;2022-11-03T02:22:02;95775.78;;;15.49;61.78
7834;BME280;3962;42.696;23.354;2022-11-03T02:24:47;95760.88;;;15.46;61.86
7834;BME280;3962;42.696;23.354;2022-11-03T02:27:21;95773.44;;;15.46;62.01
7834;BME280;3962;42.696;23.354;2022-11-03T02:29:48;95774.44;;;15.45;61.94
7834;BME280;3962;42.696;23.354;2022-11-03T02:32:20;95767.22;;;15.45;62.21
7834;BME280;3962;42.696;23.354;2022-11-03T02:34:54;95763.03;;;15.43;62.00
7834;BME280;3962;42.696;23.354;2022-11-03T02:37:35;95763.88;;;15.43;61.81
7834;BME280;3962;42.696;23.354;2022-11-03T02:40:16;95768.69;;;15.32;62.28
7834;BME280;3962;42.696;23.354;2022-11-03T02:42:47;95770.31;;;15.25;62.74
7834;BME280;3962;42.696;23.354;2022-11-03T02:45:24;95766.72;;;15.34;62.70
7834;BME280;3962;42.696;23.354;2022-11-03T02:47:56;95772.69;;;15.28;62.77
7834;BME280;3962;42.696;23.354;2022-11-03T02:50:26;95769.00;;;15.29;62.93
7834;BME280;3962;42.696;23.354;2022-11-03T02:52:55;95769.31;;;15.26;62.84
7834;BME280;3962;42.696;23.354;2022-11-03T02:55:31;95777.06;;;15.29;62.91
7834;BME280;3962;42.696;23.354;2022-11-03T02:58:13;95767.88;;;15.31;62.75
7834;BME280;3962;42.696;23.354;2022-11-03T03:00:50;95767.38;;;15.36;62.26
7834;BME280;3962;42.696;23.354;2022-11-03T03:03:27;95756.31;;;15.31;61.88
7834;BME280;3962;42.696;23.354;2022-11-03T03:05:59;95768.69;;;15.32;62.17
7834;BME280;3962;42.696;23.354;2022-11-03T03:08:29;95768.56;;;15.33;61.85
7834;BME280;3962;42.696;23.354;2022-11-03T03:11:02;95772.91;;;15.42;61.78
7834;BME280;3962;42.696;23.354;2022-11-03T03:13:40;95770.38;;;15.33;61.59
7834;BME280;3962;42.696;23.354;2022-11-03T03:16:24;95773.56;;;15.36;61.83
7834;BME280;3962;42.696;23.354;2022-11-03T03:19:02;95767.91;;;15.39;61.33
7834;BME280;3962;42.696;23.354;2022-11-03T03:21:40;95770.88;;;15.36;61.83
7834;BME280;3962;42.696;23.354;2022-11-03T03:24:14;95767.16;;;15.29;62.03
7834;BME280;3962;42.696;23.354;2022-11-03T03:26:51;95767.81;;;15.15;62.30
7834;BME280;3962;42.696;23.354;2022-11-03T03:29:24;95764.63;;;15.20;62.69
7834;BME280;3962;42.696;23.354;2022-11-03T03:31:55;95771.81;;;15.19;62.31
7834;BME280;3962;42.696;23.354;2022-11-03T03:34:28;95769.75;;;15.05;62.68
7834;BME280;3962;42.696;23.354;2022-11-03T03:37:06;95769.63;;;15.07;62.72
7834;BME280;3962;42.696;23.354;2022-11-03T03:39:40;95779.97;;;15.02;63.04
7834;BME280;3962;42.696;23.354;2022-11-03T03:42:11;95778.97;;;14.95;62.88
7834;BME280;3962;42.696;23.354;2022-11-03T03:44:42;95771.91;;;14.94;63.52
7834;BME280;3962;42.696;23.354;2022-11-03T03:47:13;95779.94;;;14.94;63.21
7834;BME280;3962;42.696;23.354;2022-11-03T03:49:43;95774.56;;;14.94;63.72
7834;BME280;3962;42.696;23.354;2022-11-03T03:52:11;95777.25;;;14.94;63.31
7834;BME280;3962;42.696;23.354;2022-11-03T03:57:30;95776.94;;;14.89;63.66
7834;BME280;3962;42.696;23.354;2022-11-03T03:59:58;95773.72;;;14.85;63.63
7834;BME280;3962;42.696;23.354;2022-11-03T04:02:26;95776.72;;;14.82;64.16
7834;BME280;3962;42.696;23.354;2022-11-03T04:04:54;95774.00;;;14.74;64.57
7834;BME280;3962;42.696;23.354;2022-11-03T04:07:23;95777.16;;;14.70;64.66
7834;BME280;3962;42.696;23.354;2022-11-03T04:10:08;95783.50;;;14.69;64.65
7834;BME280;3962;42.696;23.354;2022-11-03T04:12:43;95784.38;;;14.70;64.31
7834;BME280;3962;42.696;23.354;2022-11-03T04:15:31;95786.16;;;14.61;64.85
7834;BME280;3962;42.696;23.354;2022-11-03T04:18:22;95773.88;;;14.51;65.82
7834;BME280;3962;42.696;23.354;2022-11-03T04:21:11;95780.72;;;14.45;65.99
7834;BME280;3962;42.696;23.354;2022-11-03T04:23:55;95779.03;;;14.44;66.11
7834;BME280;3962;42.696;23.354;2022-11-03T04:26:23;95778.03;;;14.45;66.17
7834;BME280;3962;42.696;23.354;2022-11-03T04:28:54;95776.63;;;14.33;66.82
7834;BME280;3962;42.696;23.354;2022-11-03T04:31:23;95779.94;;;14.27;66.80
7834;BME280;3962;42.696;23.354;2022-11-03T04:33:53;95774.91;;;14.24;67.03
7834;BME280;3962;42.696;23.354;2022-11-03T04:36:24;95774.91;;;14.24;67.17
7834;BME280;3962;42.696;23.354;2022-11-03T04:38:51;95776.25;;;14.54;69.46
7834;BME280;3962;42.696;23.354;2022-11-03T04:41:23;95770.31;;;14.68;69.00
7834;BME280;3962;42.696;23.354;2022-11-03T04:43:52;95772.66;;;14.71;68.22
7834;BME280;3962;42.696;23.354;2022-11-03T04:46:24;95776.53;;;14.76;67.42
7834;BME280;3962;42.696;23.354;2022-11-03T04:48:57;95773.91;;;14.59;67.53
7834;BME280;3962;42.696;23.354;2022-11-03T04:51:33;95776.09;;;14.63;68.91
7834;BME280;3962;42.696;23.354;2022-11-03T04:54:12;95772.03;;;14.77;68.29
7834;BME280;3962;42.696;23.354;2022-11-03T04:56:40;95781.09;;;14.50;67.09
7834;BME280;3962;42.696;23.354;2022-11-03T04:59:10;95777.31;;;14.35;67.81
7834;BME280;3962;42.696;23.354;2022-11-03T05:01:39;95782.94;;;14.24;67.84
7834;BME280;3962;42.696;23.354;2022-11-03T05:04:10;95778.59;;;14.06;68.11
7834;BME280;3962;42.696;23.354;2022-11-03T05:06:37;95779.75;;;14.03;68.70
7834;BME280;3962;42.696;23.354;2022-11-03T05:09:13;95783.56;;;14.01;68.61
7834;BME280;3962;42.696;23.354;2022-11-03T05:11:43;95777.75;;;13.88;69.08
7834;BME280;3962;42.696;23.354;2022-11-03T05:14:14;95783.63;;;13.91;69.16
7834;BME280;3962;42.696;23.354;2022-11-03T05:16:42;95781.97;;;13.90;69.23
7834;BME280;3962;42.696;23.354;2022-11-03T05:19:14;95792.47;;;13.84;69.04
7834;BME280;3962;42.696;23.354;2022-11-03T05:21:41;95791.47;;;13.67;69.93
7834;BME280;3962;42.696;23.354;2022-11-03T05:24:12;95785.44;;;13.65;69.93
7834;BME280;3962;42.696;23.354;2022-11-03T05:26:39;95792.53;;;13.74;69.85
7834;BME280;3962;42.696;23.354;2022-11-03T05:29:11;95796.13;;;13.83;69.66
7834;BME280;3962;42.696;23.354;2022-11-03T05:31:41;95800.00;;;13.88;69.76
7834;BME280;3962;42.696;23.354;2022-11-03T05:34:30;95796.28;;;13.81;69.25
7834;BME280;3962;42.696;23.354;2022-11-03T05:36:58;95805.28;;;13.80;69.78
7834;BME280;3962;42.696;23.354;2022-11-03T05:39:29;95801.56;;;13.73;69.03
7834;BME280;3962;42.696;23.354;2022-11-03T05:41:57;95817.91;;;13.70;68.58
7834;BME280;3962;42.696;23.354;2022-11-03T05:44:28;95811.41;;;13.73;68.55
7834;BME280;3962;42.696;23.354;2022-11-03T05:47:04;95816.59;;;13.74;68.11
7834;BME280;3962;42.696;23.354;2022-11-03T05:49:34;95818.91;;;13.69;67.34
7834;BME280;3962;42.696;23.354;2022-11-03T05:52:01;95831.25;;;13.35;66.70
7834;BME280;3962;42.696;23.354;2022-11-03T05:54:31;95830.88;;;13.03;66.90
7834;BME280;3962;42.696;23.354;2022-11-03T05:57:00;95833.31;;;12.87;67.17
7834;BME280;3962;42.696;23.354;2022-11-03T05:59:27;95837.03;;;12.77;67.65
7834;BME280;3962;42.696;23.354;2022-11-03T06:01:58;95840.81;;;12.74;68.64
7834;BME280;3962;42.696;23.354;2022-11-03T06:04:29;95838.00;;;12.76;68.49
7834;BME280;3962;42.696;23.354;2022-11-03T06:07:01;95841.97;;;12.72;68.82
7834;BME280;3962;42.696;23.354;2022-11-03T06:09:31;95844.78;;;12.70;68.77
7834;BME280;3962;42.696;23.354;2022-11-03T06:12:00;95851.94;;;12.70;67.90
7834;BME280;3962;42.696;23.354;2022-11-03T06:14:29;95859.69;;;12.73;68.53
7834;BME280;3962;42.696;23.354;2022-11-03T06:16:58;95847.56;;;12.78;68.95
7834;BME280;3962;42.696;23.354;2022-11-03T06:19:28;95856.22;;;12.90;68.08
7834;BME280;3962;42.696;23.354;2022-11-03T06:21:58;95854.94;;;12.94;68.38
7834;BME280;3962;42.696;23.354;2022-11-03T06:24:29;95852.25;;;13.03;68.50
7834;BME280;3962;42.696;23.354;2022-11-03T06:26:57;95856.41;;;13.15;68.24
7834;BME280;3962;42.696;23.354;2022-11-03T06:29:25;95865.06;;;13.27;67.96
7834;BME280;3962;42.696;23.354;2022-11-03T06:31:53;95864.84;;;13.38;68.14
7834;BME280;3962;42.696;23.354;2022-11-03T06:34:42;95869.47;;;13.63;67.67
7834;BME280;3962;42.696;23.354;2022-11-03T06:37:18;95874.06;;;13.88;67.44
7834;BME280;3962;42.696;23.354;2022-11-03T06:39:46;95875.00;;;13.96;66.96
7834;BME280;3962;42.696;23.354;2022-11-03T06:42:14;95872.84;;;14.00;66.82
7834;BME280;3962;42.696;23.354;2022-11-03T06:44:44;95879.88;;;14.01;66.06
7834;BME280;3962;42.696;23.354;2022-11-03T06:47:19;95865.75;;;14.08;66.04
7834;BME280;3962;42.696;23.354;2022-11-03T06:49:49;95869.63;;;14.14;65.75
7834;BME280;3962;42.696;23.354;2022-11-03T06:52:25;95877.47;;;14.15;65.94
7834;BME280;3962;42.696;23.354;2022-11-03T06:54:54;95874.00;;;14.15;66.95
7834;BME280;3962;42.696;23.354;2022-11-03T06:57:25;95869.94;;;14.28;68.77
7834;BME280;3962;42.696;23.354;2022-11-03T06:59:54;95870.69;;;14.38;69.06
7834;BME280;3962;42.696;23.354;2022-11-03T07:02:42;95869.13;;;14.53;68.21
7834;BME280;3962;42.696;23.354;2022-11-03T07:05:20;95865.25;;;14.73;68.26
7834;BME280;3962;42.696;23.354;2022-11-03T07:07:48;95862.81;;;14.62;68.01
7834;BME280;3962;42.696;23.354;2022-11-03T07:10:15;95872.22;;;14.91;67.38
7834;BME280;3962;42.696;23.354;2022-11-03T07:12:42;95863.75;;;15.04;66.83
7834;BME280;3962;42.696;23.354;2022-11-03T07:15:19;95857.03;;;15.08;66.66
7834;BME280;3962;42.696;23.354;2022-11-03T07:17:48;95859.38;;;15.36;66.50
7834;BME280;3962;42.696;23.354;2022-11-03T07:20:15;95863.31;;;15.50;65.63
7834;BME280;3962;42.696;23.354;2022-11-03T07:22:45;95865.00;;;15.59;65.10
7834;BME280;3962;42.696;23.354;2022-11-03T07:25:15;95862.97;;;15.61;65.09
7834;BME280;3962;42.696;23.354;2022-11-03T07:27:43;95856.94;;;15.59;65.14
7834;BME280;3962;42.696;23.354;2022-11-03T07:30:15;95866.00;;;15.58;65.33
7834;BME280;3962;42.696;23.354;2022-11-03T07:32:44;95868.69;;;15.58;65.83
7834;BME280;3962;42.696;23.354;2022-11-03T07:35:31;95866.34;;;15.71;65.62
7834;BME280;3962;42.696;23.354;2022-11-03T07:38:08;95856.66;;;15.78;65.39
7834;BME280;3962;42.696;23.354;2022-11-03T07:40:37;95861.88;;;16.03;64.67
7834;BME280;3962;42.696;23.354;2022-11-03T07:43:12;95859.22;;;16.11;64.38
7834;BME280;3962;42.696;23.354;2022-11-03T07:45:42;95860.53;;;16.23;64.18
7834;BME280;3962;42.696;23.354;2022-11-03T07:48:20;95862.25;;;16.32;64.11
7834;BME280;3962;42.696;23.354;2022-11-03T07:50:49;95859.75;;;16.39;63.59
7834;BME280;3962;42.696;23.354;2022-11-03T07:53:21;95853.19;;;16.49;63.35
7834;BME280;3962;42.696;23.354;2022-11-03T07:55:48;95851.00;;;16.69;63.17
7834;BME280;3962;42.696;23.354;2022-11-03T07:58:22;95844.22;;;16.89;62.08
7834;BME280;3962;42.696;23.354;2022-11-03T08:00:53;95840.81;;;17.03;61.78
7834;BME280;3962;42.696;23.354;2022-11-03T08:03:38;95845.41;;;16.86;61.72
7834;BME280;3962;42.696;23.354;2022-11-03T08:06:07;95830.63;;;16.90;61.54
7834;BME280;3962;42.696;23.354;2022-11-03T08:08:35;95838.44;;;17.54;59.86
7834;BME280;3962;42.696;23.354;2022-11-03T08:11:02;95828.19;;;18.70;57.17
7834;BME280;3962;42.696;23.354;2022-11-03T08:13:28;95834.22;;;20.23;53.38
7834;BME280;3962;42.696;23.354;2022-11-03T08:15:56;95836.88;;;20.44;50.77
7834;BME280;3962;42.696;23.354;2022-11-03T08:18:23;95830.84;;;20.42;51.16
7834;BME280;3962;42.696;23.354;2022-11-03T08:20:50;95834.22;;;21.27;48.99
7834;BME280;3962;42.696;23.354;2022-11-03T08:23:17;95836.38;;;22.32;46.77
7834;BME280;3962;42.696;23.354;2022-11-03T08:25:45;95829.06;;;22.26;46.46
7834;BME280;3962;42.696;23.354;2022-11-03T08:28:12;95834.78;;;22.50;45.83
7834;BME280;3962;42.696;23.354;2022-11-03T08:30:39;95823.28;;;22.55;45.74
7834;BME280;3962;42.696;23.354;2022-11-03T08:33:06;95823.38;;;21.61;47.29
7834;BME280;3962;42.696;23.354;2022-11-03T08:35:33;95815.88;;;22.10;46.08
7834;BME280;3962;42.696;23.354;2022-11-03T08:38:00;95826.53;;;22.18;46.19
7834;BME280;3962;42.696;23.354;2022-11-03T08:40:26;95819.88;;;22.33;45.49
7834;BME280;3962;42.696;23.354;2022-11-03T08:42:55;95817.84;;;22.42;45.27
7834;BME280;3962;42.696;23.354;2022-11-03T08:45:21;95819.75;;;22.54;45.12
7834;BME280;3962;42.696;23.354;2022-11-03T08:47:48;95815.88;;;22.10;45.85
7834;BME280;3962;42.696;23.354;2022-11-03T08:50:15;95822.59;;;21.67;46.69
7834;BME280;3962;42.696;23.354;2022-11-03T08:52:42;95823.09;;;21.90;46.44
7834;BME280;3962;42.696;23.354;2022-11-03T08:55:09;95817.94;;;22.01;46.13
7834;BME280;3962;42.696;23.354;2022-11-03T08:57:35;95819.59;;;22.02;46.37
7834;BME280;3962;42.696;23.354;2022-11-03T09:00:05;95818.16;;;22.06;46.20
7834;BME280;3962;42.696;23.354;2022-11-03T09:02:32;95822.91;;;21.91;46.84
7834;BME280;3962;42.696;23.354;2022-11-03T09:04:59;95813.13;;;21.97;46.43
7834;BME280;3962;42.696;23.354;2022-11-03T09:07:26;95819.50;;;21.76;46.67
7834;BME280;3962;42.696;23.354;2022-11-03T09:09:53;95817.09;;;21.54;46.93
7834;BME280;3962;42.696;23.354;2022-11-03T09:12:20;95818.84;;;21.27;47.39
7834;BME280;3962;42.696;23.354;2022-11-03T09:14:47;95808.78;;;21.15;47.97
7834;BME280;3962;42.696;23.354;2022-11-03T09:17:15;95806.25;;;20.37;49.26
7834;BME280;3962;42.696;23.354;2022-11-03T09:19:42;95797.34;;;20.64;48.95
7834;BME280;3962;42.696;23.354;2022-11-03T09:22:09;95795.75;;;20.76;48.67
7834;BME280;3962;42.696;23.354;2022-11-03T09:24:35;95793.88;;;20.98;47.83
7834;BME280;3962;42.696;23.354;2022-11-03T09:27:02;95789.03;;;21.21;47.55
7834;BME280;3962;42.696;23.354;2022-11-03T09:29:30;95778.09;;;21.01;47.97
7834;BME280;3962;42.696;23.354;2022-11-03T09:31:57;95775.94;;;20.90;48.22
7834;BME280;3962;42.696;23.354;2022-11-03T09:34:25;95771.81;;;20.94;48.43
7834;BME280;3962;42.696;23.354;2022-11-03T09:36:52;95776.03;;;21.03;48.30
7834;BME280;3962;42.696;23.354;2022-11-03T09:39:19;95773.47;;;20.95;47.86
7834;BME280;3962;42.696;23.354;2022-11-03T09:41:46;95771.19;;;20.71;48.37
7834;BME280;3962;42.696;23.354;2022-11-03T09:44:12;95769.00;;;20.60;48.59
7834;BME280;3962;42.696;23.354;2022-11-03T09:46:39;95761.75;;;20.33;49.00
7834;BME280;3962;42.696;23.354;2022-11-03T09:49:06;95764.50;;;20.67;48.56
7834;BME280;3962;42.696;23.354;2022-11-03T09:51:35;95762.19;;;20.64;48.34
7834;BME280;3962;42.696;23.354;2022-11-03T09:54:03;95758.75;;;20.49;48.12
7834;BME280;3962;42.696;23.354;2022-11-03T09:56:34;95749.63;;;20.84;47.93
7834;BME280;3962;42.696;23.354;2022-11-03T09:59:10;95748.09;;;20.96;47.37
7834;BME280;3962;42.696;23.354;2022-11-03T10:01:39;95752.47;;;21.04;47.28
7834;BME280;3962;42.696;23.354;2022-11-03T10:04:08;95743.16;;;20.79;47.76
7834;BME280;3962;42.696;23.354;2022-11-03T10:06:38;95742.94;;;21.01;48.63
7834;BME280;3962;42.696;23.354;2022-11-03T10:09:05;95734.56;;;21.37;47.39
7834;BME280;3962;42.696;23.354;2022-11-03T10:11:35;95729.44;;;21.14;47.00
7834;BME280;3962;42.696;23.354;2022-11-03T10:14:03;95723.06;;;21.28;46.41
7834;BME280;3962;42.696;23.354;2022-11-03T10:16:31;95722.66;;;21.31;46.23
7834;BME280;3962;42.696;23.354;2022-11-03T10:18:58;95718.00;;;21.12;46.86
7834;BME280;3962;42.696;23.354;2022-11-03T10:21:27;95714.28;;;20.52;47.80
7834;BME280;3962;42.696;23.354;2022-11-03T10:23:57;95712.06;;;20.34;48.76
7834;BME280;3962;42.696;23.354;2022-11-03T10:26:24;95708.28;;;20.56;48.76
7834;BME280;3962;42.696;23.354;2022-11-03T10:28:59;95700.47;;;20.74;47.53
7834;BME280;3962;42.696;23.354;2022-11-03T10:31:33;95704.19;;;20.94;47.10
7834;BME280;3962;42.696;23.354;2022-11-03T10:34:01;95701.84;;;20.91;48.92
7834;BME280;3962;42.696;23.354;2022-11-03T10:36:29;95694.50;;;21.13;46.39
7834;BME280;3962;42.696;23.354;2022-11-03T10:38:58;95686.63;;;21.24;45.94
7834;BME280;3962;42.696;23.354;2022-11-03T10:41:27;95680.38;;;21.24;45.96
7834;BME280;3962;42.696;23.354;2022-11-03T10:44:07;95670.56;;;21.16;45.58
7834;BME280;3962;42.696;23.354;2022-11-03T10:46:55;95665.56;;;21.20;45.57
7834;BME280;3962;42.696;23.354;2022-11-03T10:49:23;95670.09;;;21.06;45.73
7834;BME280;3962;42.696;23.354;2022-11-03T10:51:51;95661.00;;;21.27;45.69
7834;BME280;3962;42.696;23.354;2022-11-03T10:54:21;95663.47;;;21.15;45.47
7834;BME280;3962;42.696;23.354;2022-11-03T10:56:49;95655.13;;;21.10;45.46
7834;BME280;3962;42.696;23.354;2022-11-03T10:59:18;95649.75;;;21.23;45.08
7834;BME280;3962;42.696;23.354;2022-11-03T11:01:45;95650.59;;;21.24;45.14
7834;BME280;3962;42.696;23.354;2022-11-03T11:04:14;95643.50;;;21.23;46.02
7834;BME280;3962;42.696;23.354;2022-11-03T11:06:41;95640.63;;;21.24;44.22
7834;BME280;3962;42.696;23.354;2022-11-03T11:09:10;95641.00;;;21.21;44.08
7834;BME280;3962;42.696;23.354;2022-11-03T11:11:39;95635.13;;;21.05;43.87
7834;BME280;3962;42.696;23.354;2022-11-03T11:14:34;95628.06;;;21.10;43.13
7834;BME280;3962;42.696;23.354;2022-11-03T11:17:03;95621.84;;;21.16;42.94
7834;BME280;3962;42.696;23.354;2022-11-03T11:22:36;95618.31;;;21.16;43.65
7834;BME280;3962;42.696;23.354;2022-11-03T11:25:03;95612.28;;;21.20;43.13
7834;BME280;3962;42.696;23.354;2022-11-03T11:33:33;95606.00;;;21.07;43.42
7834;BME280;3962;42.696;23.354;2022-11-03T11:36:18;95597.91;;;21.20;41.57
7834;BME280;3962;42.696;23.354;2022-11-03T11:39:03;95593.31;;;21.14;41.40
7834;BME280;3962;42.696;23.354;2022-11-03T11:45:02;95590.00;;;21.25;41.59
7834;BME280;3962;42.696;23.354;2022-11-03T11:47:45;95579.19;;;21.25;42.14
7834;BME280;3962;42.696;23.354;2022-11-03T11:50:31;95581.88;;;21.18;42.23
7834;BME280;3962;42.696;23.354;2022-11-03T11:53:02;95580.22;;;21.17;42.21
7834;BME280;3962;42.696;23.354;2022-11-03T11:55:33;95567.75;;;21.29;42.87
7834;BME280;3962;42.696;23.354;2022-11-03T11:58:02;95560.25;;;21.31;42.10
7834;BME280;3962;42.696;23.354;2022-11-03T12:00:31;95564.03;;;21.43;41.93
7834;BME280;3962;42.696;23.354;2022-11-03T12:03:00;95557.78;;;21.49;42.85
7834;BME280;3962;42.696;23.354;2022-11-03T12:05:29;95555.69;;;21.58;41.40
7834;BME280;3962;42.696;23.354;2022-11-03T12:07:58;95556.97;;;21.68;40.18
7834;BME280;3962;42.696;23.354;2022-11-03T12:10:26;95559.69;;;21.88;41.31
7834;BME280;3962;42.696;23.354;2022-11-03T12:12:54;95551.16;;;21.84;39.51
7834;BME280;3962;42.696;23.354;2022-11-03T12:15:46;95546.34;;;21.80;39.76
7834;BME280;3962;42.696;23.354;2022-11-03T12:18:30;95548.03;;;21.87;37.71
7834;BME280;3962;42.696;23.354;2022-11-03T12:20:57;95539.88;;;22.07;39.04
7834;BME280;3962;42.696;23.354;2022-11-03T12:23:37;95537.72;;;22.35;38.47
7834;BME280;3962;42.696;23.354;2022-11-03T12:26:13;95541.94;;;22.18;37.98
7834;BME280;3962;42.696;23.354;2022-11-03T12:28:40;95534.56;;;22.38;38.27
7834;BME280;3962;42.696;23.354;2022-11-03T12:31:07;95534.91;;;22.74;37.32
7834;BME280;3962;42.696;23.354;2022-11-03T12:33:34;95529.78;;;22.97;38.63
7834;BME280;3962;42.696;23.354;2022-11-03T12:36:01;95527.72;;;22.92;38.60
7834;BME280;3962;42.696;23.354;2022-11-03T12:38:28;95531.34;;;23.17;38.44
7834;BME280;3962;42.696;23.354;2022-11-03T12:40:56;95520.97;;;23.01;37.94
7834;BME280;3962;42.696;23.354;2022-11-03T12:43:42;95515.47;;;22.77;39.04
7834;BME280;3962;42.696;23.354;2022-11-03T12:46:09;95517.75;;;22.80;38.52
7834;BME280;3962;42.696;23.354;2022-11-03T12:48:37;95508.88;;;22.97;38.18
7834;BME280;3962;42.696;23.354;2022-11-03T12:51:09;95513.59;;;23.21;37.42
7834;BME280;3962;42.696;23.354;2022-11-03T12:53:36;95512.88;;;23.32;36.94
7834;BME280;3962;42.696;23.354;2022-11-03T12:56:04;95505.06;;;23.17;36.80
7834;BME280;3962;42.696;23.354;2022-11-03T12:58:31;95511.03;;;23.26;37.09
7834;BME280;3962;42.696;23.354;2022-11-03T13:00:58;95500.66;;;23.16;36.46
7834;BME280;3962;42.696;23.354;2022-11-03T13:03:25;95502.84;;;23.32;36.17
7834;BME280;3962;42.696;23.354;2022-11-03T13:05:52;95502.31;;;23.48;36.17
7834;BME280;3962;42.696;23.354;2022-11-03T13:08:19;95503.50;;;23.28;37.54
7834;BME280;3962;42.696;23.354;2022-11-03T13:10:46;95497.47;;;23.26;38.68
7834;BME280;3962;42.696;23.354;2022-11-03T13:13:14;95494.13;;;23.24;37.55
7834;BME280;3962;42.696;23.354;2022-11-03T13:15:41;95485.84;;;23.43;36.73
7834;BME280;3962;42.696;23.354;2022-11-03T13:18:08;95486.72;;;23.37;36.83
7834;BME280;3962;42.696;23.354;2022-11-03T13:20:35;95489.09;;;23.27;36.72
7834;BME280;3962;42.696;23.354;2022-11-03T13:23:02;95480.13;;;23.27;36.40
7834;BME280;3962;42.696;23.354;2022-11-03T13:25:30;95487.91;;;23.17;36.91
7834;BME280;3962;42.696;23.354;2022-11-03T13:27:57;95485.13;;;23.30;37.75
7834;BME280;3962;42.696;23.354;2022-11-03T13:30:25;95482.78;;;23.02;37.00
7834;BME280;3962;42.696;23.354;2022-11-03T13:32:52;95479.78;;;23.17;38.36
7834;BME280;3962;42.696;23.354;2022-11-03T13:35:19;95477.09;;;23.10;37.16
7834;BME280;3962;42.696;23.354;2022-11-03T13:37:46;95476.00;;;23.18;37.45
7834;BME280;3962;42.696;23.354;2022-11-03T13:40:14;95473.59;;;23.03;36.91
7834;BME280;3962;42.696;23.354;2022-11-03T13:42:41;95477.22;;;22.91;36.80
7834;BME280;3962;42.696;23.354;2022-11-03T13:45:09;95473.44;;;22.92;36.89